Archival Weather

Chicago O'Hare International

Chicago, Illinois (KORD)

Report from: Saturday, November 5, 2022 12:51 PM CDT
Current time: Saturday, March 2, 2024 3:01 AM CST

Current weather – Weather history – Daily summaries
Weather forecast

Temperature12.8°C (55.0°F)
Dew point9.4°C (48.9°F)
Winds 26 kts (13.4 m/s, 29.9 mph) South-Southwest (210°)
Wind gusts 35 kts (18 m/s, 40.3 mph)
Peak wind 50 kts (25.7 m/s, 57.5 mph) South (190°) at 16:59
Visibility10 mi. (16.1 km)
Clouds Scattered clouds 1,400 ft. (427 m)
Ceiling: Broken clouds 2,400 ft. (732 m)
Overcast 4,600 ft. (1,402 m)
Altimeter29.43 in.Hg (997 mB)
Precipitiation0.03 in. (1 mm)
Precip. events Rain began 5:00 PM
Rain ended 5:37 PM
Precip last 3 hours0.05 in. (1 mm)
Relative humidity80 %
Density altitude488 ft. (149 m)
Sea-level pressure99.6 kPa (996 mB, 29.42 in.Hg)
Max temp last 6 hours17.8°C (64.0°F)
Min temp last 6 hours12.8°C (55.0°F)
Remarks Automated weather observing station with precipitation discriminator
Pressure falling, then rising
Flight conditions Marginal Visual Meteorological Conditions
Raw dataKORD 051751Z 21026G35KT 10SM SCT014 BKN024 OVC046 13/09 A2943 RMK AO2 PK WND 19050/1659 RAB00E37 SLP962 P0003 60005 T01280094 10178 20128 55006
An error has occurred. This application may no longer respond until reloaded. Reload 🗙